Hoene Spring, Missouri
Current Conditions -  °F | °C
As of 1:06 AM on Thursday 23 Oct 2014 (Local Time) from KSUS Reporting Station
Haze Haze  
Wind Chill: 39°   Ceiling: Unl
Heat Index: 39°   Visibility: 1.7mi
Dew Point: 37°   Wind: 0mph
Humidity: 93%   Direction: NA
Pressure: 30.21"   Gusts: NA
Location:  38.5081°N, 90.6523°W
Report Text: KSUS 230606Z AUTO 00000KT 1 3/4SM R08R/3500VP6000FT BR CLR 04/03 A3021 RMK AO2 VIS 1/2V5 TSNO
Loading
Personal Weather Stations






























Interactive Weather Map New forecast layout! Learn more

10-Day Weather Forecast

Advertisements
Track Severe Weather on mobile